createdAt,value
2022-10-02T00:02:21.792Z,101078.41
2022-10-02T00:05:08.901Z,101084.53
2022-10-02T00:08:03.447Z,101075.75
2022-10-02T00:10:41.330Z,101078.41
2022-10-02T00:13:15.649Z,101070.50
2022-10-02T00:15:44.822Z,101071.41
2022-10-02T00:18:17.952Z,101074.94
2022-10-02T00:21:03.237Z,101080.22
2022-10-02T00:23:43.234Z,101071.44
2022-10-02T00:26:24.058Z,101085.53
2022-10-02T00:29:08.187Z,101090.81
2022-10-02T00:32:02.868Z,101096.09
2022-10-02T00:34:53.842Z,101093.47
2022-10-02T00:37:38.985Z,101100.53
2022-10-02T00:40:52.808Z,101099.63
2022-10-02T00:43:35.651Z,101098.75
2022-10-02T00:46:30.330Z,101096.09
2022-10-02T00:49:25.539Z,101098.72
2022-10-02T00:52:13.882Z,101106.63
2022-10-02T00:55:08.511Z,101104.88
2022-10-02T00:57:47.961Z,101104.84
2022-10-02T01:00:18.738Z,101108.38
2022-10-02T01:02:53.119Z,101104.84
2022-10-02T01:05:21.550Z,101112.72
2022-10-02T01:07:54.141Z,101111.84
2022-10-02T01:10:25.526Z,101115.34
2022-10-02T01:12:55.591Z,101114.44
2022-10-02T01:15:37.475Z,101119.72
2022-10-02T01:18:07.303Z,101119.72
2022-10-02T01:20:42.365Z,101125.00
2022-10-02T01:23:36.735Z,101127.63
2022-10-02T01:26:05.973Z,101127.59
2022-10-02T01:28:34.402Z,101132.00
2022-10-02T01:31:11.002Z,101130.19
2022-10-02T01:33:44.602Z,101127.56
2022-10-02T01:36:15.319Z,101127.53
2022-10-02T01:38:44.438Z,101132.81
2022-10-02T01:41:13.419Z,101142.44
2022-10-02T01:43:57.723Z,101138.06
2022-10-02T01:46:38.531Z,101132.75
2022-10-02T01:49:25.950Z,101137.13
2022-10-02T01:51:57.110Z,101139.75
2022-10-02T01:54:50.344Z,101134.47
2022-10-02T01:57:49.984Z,101137.97
2022-10-02T02:00:25.738Z,101137.09
2022-10-02T02:03:18.706Z,101134.41
2022-10-02T02:05:53.028Z,101141.41
2022-10-02T02:08:45.851Z,101140.56
2022-10-02T02:11:20.935Z,101130.84
2022-10-02T02:14:15.294Z,101140.50
2022-10-02T02:16:46.486Z,101147.50
2022-10-02T02:19:33.949Z,101142.22
2022-10-02T02:22:15.075Z,101138.66
2022-10-02T02:24:48.423Z,101134.28
2022-10-02T02:27:22.637Z,101133.41
2022-10-02T02:29:55.317Z,101132.47
2022-10-02T02:32:28.205Z,101137.75
2022-10-02T02:35:05.636Z,101132.47
2022-10-02T02:37:37.818Z,101128.94
2022-10-02T02:40:20.220Z,101132.47
2022-10-02T02:43:19.574Z,101143.84
2022-10-02T02:45:54.838Z,101150.91
2022-10-02T02:48:47.477Z,101151.78
2022-10-02T02:51:30.313Z,101139.47
2022-10-02T02:54:23.975Z,101145.69
2022-10-02T02:56:56.490Z,101155.41
2022-10-02T02:59:29.077Z,101144.00
2022-10-02T03:01:58.104Z,101140.50
2022-10-02T03:04:26.615Z,101143.19
2022-10-02T03:07:01.492Z,101153.75
2022-10-02T03:09:33.560Z,101145.88
2022-10-02T03:12:04.983Z,101156.44
2022-10-02T03:14:55.062Z,101159.94
2022-10-02T03:17:51.388Z,101167.91
2022-10-02T03:20:42.978Z,101181.97
2022-10-02T03:23:33.152Z,101197.81
2022-10-02T03:26:17.432Z,101164.47
2022-10-02T03:28:56.489Z,101177.69
2022-10-02T03:31:34.252Z,101180.34
2022-10-02T03:34:03.713Z,101161.00
2022-10-02T03:36:33.212Z,101161.91
2022-10-02T03:39:24.080Z,101159.28
2022-10-02T03:41:52.584Z,101161.91
2022-10-02T03:44:22.452Z,101161.03
2022-10-02T03:46:50.861Z,101168.94
2022-10-02T03:49:19.953Z,101160.13
2022-10-02T03:51:49.147Z,101166.28
2022-10-02T03:54:20.514Z,101168.91
2022-10-02T03:56:52.167Z,101168.03
2022-10-02T03:59:31.347Z,101170.69
2022-10-02T04:02:03.039Z,101178.59
2022-10-02T04:04:48.019Z,101182.13
2022-10-02T04:07:30.981Z,101177.78
2022-10-02T04:10:20.639Z,101182.16
2022-10-02T04:12:53.044Z,101182.16
2022-10-02T04:15:28.235Z,101186.56
2022-10-02T04:18:03.155Z,101186.56
2022-10-02T04:20:43.713Z,101192.69
2022-10-02T04:23:28.115Z,101187.41
2022-10-02T04:26:03.839Z,101183.00
2022-10-02T04:28:38.942Z,101190.91
2022-10-02T04:31:15.088Z,101199.72
2022-10-02T04:33:43.533Z,101193.56
2022-10-02T04:36:44.306Z,101186.53
2022-10-02T04:39:21.674Z,101197.97
2022-10-02T04:42:15.212Z,101199.72
2022-10-02T04:45:12.385Z,101203.25
2022-10-02T04:47:51.308Z,101199.72
2022-10-02T04:50:35.451Z,101211.97
2022-10-02T04:53:16.680Z,101208.44
2022-10-02T04:55:44.985Z,101211.09
2022-10-02T04:58:47.349Z,101222.50
2022-10-02T05:01:43.635Z,101226.03
2022-10-02T05:04:44.766Z,101226.91
2022-10-02T05:07:45.994Z,101228.63
2022-10-02T05:10:20.480Z,101223.34
2022-10-02T05:13:08.530Z,101223.34
2022-10-02T05:16:10.992Z,101224.22
2022-10-02T05:19:07.491Z,101234.75
2022-10-02T05:22:15.285Z,101218.00
2022-10-02T05:25:01.761Z,101229.44
2022-10-02T05:28:17.551Z,101238.19
2022-10-02T05:30:51.940Z,101231.16
2022-10-02T05:33:35.598Z,101239.03
2022-10-02T05:36:21.641Z,101243.41
2022-10-02T05:39:01.679Z,101242.53
2022-10-02T05:41:46.066Z,101249.56
2022-10-02T05:44:39.300Z,101254.84
2022-10-02T05:47:12.969Z,101253.94
2022-10-02T05:49:49.981Z,101253.91
2022-10-02T05:52:24.294Z,101248.59
2022-10-02T05:55:03.867Z,101251.22
2022-10-02T05:57:41.429Z,101260.91
2022-10-02T06:00:27.985Z,101265.28
2022-10-02T06:03:23.158Z,101272.31
2022-10-02T06:06:10.695Z,101273.19
2022-10-02T06:08:58.567Z,101269.66
2022-10-02T06:11:29.671Z,101275.81
2022-10-02T06:14:06.159Z,101277.56
2022-10-02T06:16:41.453Z,101290.72
2022-10-02T06:19:23.735Z,101289.88
2022-10-02T06:22:15.179Z,101292.56
2022-10-02T06:24:59.287Z,101287.28
2022-10-02T06:27:30.655Z,101293.47
2022-10-02T06:30:13.257Z,101300.50
2022-10-02T06:33:06.457Z,101293.47
2022-10-02T06:35:51.629Z,101300.53
2022-10-02T06:38:32.352Z,101305.88
2022-10-02T06:41:29.053Z,101320.88
2022-10-02T06:44:17.394Z,101315.72
2022-10-02T06:47:07.550Z,101324.81
2022-10-02T06:49:58.352Z,101320.56
2022-10-02T06:52:52.921Z,101321.53
2022-10-02T06:55:46.015Z,101322.41
2022-10-02T06:58:23.319Z,101333.84
2022-10-02T07:01:29.589Z,101339.16
2022-10-02T07:04:29.429Z,101356.81
2022-10-02T07:07:09.935Z,101365.59
2022-10-02T07:09:48.719Z,101367.34
2022-10-02T07:12:43.946Z,101377.91
2022-10-02T07:15:44.717Z,101374.38
2022-10-02T07:19:01.252Z,101380.50
2022-10-02T07:21:29.702Z,101385.75
2022-10-02T07:24:32.358Z,101390.13
2022-10-02T07:27:21.675Z,101391.84
2022-10-02T07:30:04.423Z,101395.38
2022-10-02T07:32:48.628Z,101384.81
2022-10-02T07:35:41.453Z,101389.19
2022-10-02T07:38:43.799Z,101397.94
2022-10-02T07:41:33.900Z,101402.31
2022-10-02T07:44:17.416Z,101416.41
2022-10-02T07:47:01.964Z,101418.16
2022-10-02T07:49:51.903Z,101417.28
2022-10-02T07:52:41.586Z,101417.31
2022-10-02T07:55:22.166Z,101424.38
2022-10-02T07:58:08.952Z,101423.56
2022-10-02T08:01:13.785Z,101417.50
2022-10-02T08:03:51.505Z,101430.84
2022-10-02T08:06:20.255Z,101423.06
2022-10-02T08:09:21.218Z,101418.75
2022-10-02T08:12:08.993Z,101426.78
2022-10-02T08:14:41.217Z,101439.16
2022-10-02T08:17:40.225Z,101438.38
2022-10-02T08:20:31.408Z,101446.41
2022-10-02T08:23:38.216Z,101447.31
2022-10-02T08:26:35.784Z,101442.06
2022-10-02T08:29:12.214Z,101459.72
2022-10-02T08:31:40.740Z,101452.69
2022-10-02T08:34:27.991Z,101461.50
2022-10-02T08:37:24.398Z,101468.59
2022-10-02T08:40:29.462Z,101471.25
2022-10-02T08:43:22.921Z,101466.00
2022-10-02T08:46:03.647Z,101469.56
2022-10-02T08:49:00.679Z,101472.19
2022-10-02T08:51:47.997Z,101486.31
2022-10-02T08:54:25.406Z,101492.53
2022-10-02T08:57:20.310Z,101480.16
2022-10-02T09:00:09.012Z,101481.91
2022-10-02T09:02:55.504Z,101487.22
2022-10-02T09:05:45.706Z,101492.50
2022-10-02T09:08:35.816Z,101491.63
2022-10-02T09:11:29.451Z,101500.47
2022-10-02T09:14:17.507Z,101494.28
2022-10-02T09:16:51.699Z,101500.47
2022-10-02T09:19:46.539Z,101498.69
2022-10-02T09:23:03.413Z,101499.56
2022-10-02T09:25:37.058Z,101500.44
2022-10-02T09:28:21.519Z,101498.69
2022-10-02T09:31:24.358Z,101503.97
2022-10-02T09:34:11.849Z,101502.22
2022-10-02T09:37:02.440Z,101503.97
2022-10-02T09:39:43.162Z,101512.78
2022-10-02T09:42:29.850Z,101516.31
2022-10-02T09:45:29.175Z,101515.41
2022-10-02T09:48:19.431Z,101517.19
2022-10-02T09:51:06.958Z,101511.00
2022-10-02T09:54:07.309Z,101517.22
2022-10-02T09:57:13.311Z,101526.91
2022-10-02T09:59:58.820Z,101521.59
2022-10-02T10:03:01.140Z,101526.91
2022-10-02T10:05:54.424Z,101518.06
2022-10-02T10:08:23.119Z,101528.63
2022-10-02T10:11:01.325Z,101525.97
2022-10-02T10:13:42.475Z,101525.03
2022-10-02T10:16:29.622Z,101530.28
2022-10-02T10:19:02.737Z,101539.09
2022-10-02T10:21:34.074Z,101540.84
2022-10-02T10:24:23.293Z,101532.88
2022-10-02T10:27:13.713Z,101535.47
2022-10-02T10:29:49.304Z,101539.81
2022-10-02T10:32:35.396Z,101545.91
2022-10-02T10:35:28.754Z,101547.59
2022-10-02T10:38:27.891Z,101559.94
2022-10-02T10:41:07.711Z,101573.31
2022-10-02T10:44:00.784Z,101566.28
2022-10-02T10:46:45.043Z,101574.34
2022-10-02T10:49:22.432Z,101572.66
2022-10-02T10:52:25.271Z,101582.44
2022-10-02T10:55:05.350Z,101581.53
2022-10-02T10:58:03.218Z,101581.53
2022-10-02T11:01:07.053Z,101585.91
2022-10-02T11:04:01.223Z,101583.19
2022-10-02T11:06:54.432Z,101598.16
2022-10-02T11:09:51.918Z,101608.75
2022-10-02T11:12:28.304Z,101612.31
2022-10-02T11:15:15.036Z,101604.28
2022-10-02T11:18:18.456Z,101597.06
2022-10-02T11:20:57.365Z,101611.16
2022-10-02T11:23:40.775Z,101620.81
2022-10-02T11:26:25.527Z,101615.44
2022-10-02T11:29:03.028Z,101607.47
2022-10-02T11:31:59.960Z,101632.38
2022-10-02T11:34:59.251Z,101629.00
2022-10-02T11:37:42.874Z,101620.28
2022-10-02T11:40:30.095Z,101623.00
2022-10-02T11:43:23.051Z,101625.66
2022-10-02T11:46:21.688Z,101623.91
2022-10-02T11:48:55.921Z,101630.06
2022-10-02T11:52:01.548Z,101640.72
2022-10-02T11:55:08.044Z,101636.31
2022-10-02T11:58:14.923Z,101635.41
2022-10-02T12:01:05.723Z,101643.34
2022-10-02T12:03:52.687Z,101642.41
2022-10-02T12:07:05.233Z,101639.72
2022-10-02T12:09:33.573Z,101645.88
2022-10-02T12:12:07.171Z,101649.41
2022-10-02T12:15:07.539Z,101651.09
2022-10-02T12:17:57.762Z,101659.84
2022-10-02T12:20:59.324Z,101656.25
2022-10-02T12:24:07.437Z,101660.69
2022-10-02T12:26:57.448Z,101666.94
2022-10-02T12:29:41.022Z,101663.41
2022-10-02T12:32:56.771Z,101669.59
2022-10-02T12:35:44.154Z,101673.25
2022-10-02T12:38:31.328Z,101684.84
2022-10-02T12:41:21.846Z,101684.84
2022-10-02T12:44:28.295Z,101692.84
2022-10-02T12:47:08.281Z,101695.56
2022-10-02T12:50:03.774Z,101703.53
2022-10-02T12:53:00.314Z,101701.75
2022-10-02T12:55:47.856Z,101705.22
2022-10-02T12:58:42.780Z,101696.28
2022-10-02T13:01:57.494Z,101698.84
2022-10-02T13:05:02.854Z,101707.72
2022-10-02T13:07:56.130Z,101713.13
2022-10-02T13:10:46.112Z,101712.34
2022-10-02T13:13:48.538Z,101702.66
2022-10-02T13:16:35.495Z,101710.63
2022-10-02T13:19:34.058Z,101709.72
2022-10-02T13:22:16.594Z,101721.25
2022-10-02T13:25:35.112Z,101712.38
2022-10-02T13:28:22.656Z,101713.28
2022-10-02T13:31:24.295Z,101726.56
2022-10-02T13:34:34.066Z,101727.47
2022-10-02T13:37:25.164Z,101716.81
2022-10-02T13:40:20.671Z,101715.03
2022-10-02T13:43:11.240Z,101721.22
2022-10-02T13:46:02.717Z,101724.69
2022-10-02T13:48:44.228Z,101730.81
2022-10-02T13:51:40.532Z,101733.41
2022-10-02T13:54:28.211Z,101733.38
2022-10-02T13:57:05.017Z,101737.78
2022-10-02T14:00:00.698Z,101739.56
2022-10-02T14:02:45.770Z,101757.34
2022-10-02T14:05:37.204Z,101748.50
2022-10-02T14:08:24.556Z,101745.84
2022-10-02T14:11:17.264Z,101743.19
2022-10-02T14:14:10.048Z,101751.13
2022-10-02T14:16:47.549Z,101753.78
2022-10-02T14:19:35.856Z,101752.00
2022-10-02T14:22:36.096Z,101749.38
2022-10-02T14:25:23.909Z,101763.53
2022-10-02T14:28:10.600Z,101765.28
2022-10-02T14:30:55.384Z,101767.94
2022-10-02T14:34:07.550Z,101759.97
2022-10-02T14:37:16.859Z,101763.50
2022-10-02T14:39:45.943Z,101768.84
2022-10-02T14:42:32.935Z,101771.53
2022-10-02T14:45:21.711Z,101772.47
2022-10-02T14:48:10.261Z,101782.31
2022-10-02T14:50:44.666Z,101784.13
2022-10-02T14:53:16.191Z,101794.75
2022-10-02T14:56:15.084Z,101791.28
2022-10-02T14:59:11.547Z,101802.78
2022-10-02T15:02:08.712Z,101800.16
2022-10-02T15:05:08.746Z,101801.91
2022-10-02T15:07:39.373Z,101812.53
2022-10-02T15:10:27.119Z,101809.88
2022-10-02T15:13:02.436Z,101808.09
2022-10-02T15:15:35.503Z,101809.88
2022-10-02T15:18:20.085Z,101814.31
2022-10-02T15:21:08.130Z,101822.28
2022-10-02T15:23:43.675Z,101825.81
2022-10-02T15:26:21.129Z,101821.38
2022-10-02T15:28:59.347Z,101833.75
2022-10-02T15:31:39.932Z,101834.66
2022-10-02T15:34:33.477Z,101836.44
2022-10-02T15:37:37.084Z,101845.28
2022-10-02T15:40:16.883Z,101847.94
2022-10-02T15:42:58.136Z,101855.91
2022-10-02T15:45:34.009Z,101855.00
2022-10-02T15:48:14.880Z,101860.31
2022-10-02T15:51:02.801Z,101859.41
2022-10-02T15:53:45.935Z,101860.28
2022-10-02T15:56:14.981Z,101867.38
2022-10-02T15:59:21.216Z,101877.13
2022-10-02T16:02:13.002Z,101872.66
2022-10-02T16:05:01.271Z,101879.75
2022-10-02T16:07:57.699Z,101884.16
2022-10-02T16:10:40.188Z,101892.09
2022-10-02T16:13:36.512Z,101894.75
2022-10-02T16:16:46.320Z,101896.50
2022-10-02T16:19:31.652Z,101907.06
2022-10-02T16:22:18.073Z,101915.00
2022-10-02T16:24:50.781Z,101922.94
2022-10-02T16:27:30.364Z,101921.13
2022-10-02T16:30:13.953Z,101925.53
2022-10-02T16:33:05.425Z,101925.50
2022-10-02T16:36:11.317Z,101933.41
2022-10-02T16:39:04.842Z,101938.66
2022-10-02T16:41:58.447Z,101936.84
2022-10-02T16:44:45.932Z,101938.59
2022-10-02T16:47:38.141Z,101942.97
2022-10-02T16:50:29.170Z,101945.59
2022-10-02T16:53:34.758Z,101949.09
2022-10-02T16:56:50.213Z,101956.09
2022-10-02T16:59:44.206Z,101964.03
2022-10-02T17:02:22.398Z,101960.41
2022-10-02T17:05:16.543Z,101977.16
2022-10-02T17:08:08.815Z,101970.91
2022-10-02T17:10:40.254Z,101977.94
2022-10-02T17:13:48.344Z,101976.16
2022-10-02T17:16:24.289Z,101984.00
2022-10-02T17:18:59.282Z,101983.09
2022-10-02T17:21:50.189Z,101992.69
2022-10-02T17:24:45.273Z,101991.78
2022-10-02T17:27:42.611Z,101997.00
2022-10-02T17:30:26.518Z,102000.47
2022-10-02T17:33:19.683Z,102010.13
2022-10-02T17:35:54.825Z,102009.22
2022-10-02T17:38:42.838Z,102014.47
2022-10-02T17:41:25.438Z,102016.19
2022-10-02T17:44:03.123Z,102018.75
2022-10-02T17:46:37.962Z,102016.06
2022-10-02T17:49:30.052Z,102027.47
2022-10-02T17:52:33.334Z,102027.41
2022-10-02T17:55:32.891Z,102035.28
2022-10-02T17:58:25.189Z,102032.56
2022-10-02T18:01:10.322Z,102041.31
2022-10-02T18:04:03.973Z,102038.63
2022-10-02T18:07:17.152Z,102045.63
2022-10-02T18:10:10.157Z,102044.66
2022-10-02T18:13:09.512Z,102056.94
2022-10-02T18:16:08.708Z,102066.59
2022-10-02T18:18:55.793Z,102067.44
2022-10-02T18:21:54.084Z,102068.25
2022-10-02T18:24:35.276Z,102077.91
2022-10-02T18:27:28.003Z,102070.84
2022-10-02T18:30:33.055Z,102087.50
2022-10-02T18:33:24.297Z,102087.47
2022-10-02T18:36:16.338Z,102090.03
2022-10-02T18:38:57.929Z,102086.47
2022-10-02T18:41:32.745Z,102092.59
2022-10-02T18:44:22.319Z,102098.72
2022-10-02T18:47:06.368Z,102099.50
2022-10-02T18:49:38.450Z,102098.59
2022-10-02T18:52:39.855Z,102102.06
2022-10-02T18:55:17.504Z,102104.63
2022-10-02T18:58:03.748Z,102110.72
2022-10-02T19:01:15.927Z,102106.25
2022-10-02T19:04:15.723Z,102111.50
2022-10-02T19:06:50.292Z,102118.47
2022-10-02T19:09:27.782Z,102115.81
2022-10-02T19:12:15.470Z,102121.91
2022-10-02T19:14:46.473Z,102121.88
2022-10-02T19:17:31.258Z,102121.03
2022-10-02T19:19:59.873Z,102128.91
2022-10-02T19:22:38.378Z,102136.81
2022-10-02T19:25:20.743Z,102131.53
2022-10-02T19:27:54.720Z,102138.56
2022-10-02T19:30:30.627Z,102142.91
2022-10-02T19:33:03.662Z,102142.00
2022-10-02T19:35:41.981Z,102139.34
2022-10-02T19:38:31.325Z,102149.00
2022-10-02T19:41:09.737Z,102154.28
2022-10-02T19:44:02.003Z,102156.91
2022-10-02T19:46:43.600Z,102156.06
2022-10-02T19:49:24.160Z,102163.09
2022-10-02T19:51:53.525Z,102156.06
2022-10-02T19:54:39.713Z,102167.53
2022-10-02T19:57:24.367Z,102168.41
2022-10-02T19:59:55.720Z,102165.75
2022-10-02T20:02:28.241Z,102177.19
2022-10-02T20:05:03.088Z,102183.28
2022-10-02T20:07:36.848Z,102177.94
2022-10-02T20:10:15.325Z,102181.41
2022-10-02T20:12:54.424Z,102188.47
2022-10-02T20:15:48.401Z,102191.16
2022-10-02T20:18:17.007Z,102195.56
2022-10-02T20:20:47.669Z,102197.34
2022-10-02T20:23:27.697Z,102189.41
2022-10-02T20:26:00.459Z,102196.44
2022-10-02T20:28:48.667Z,102194.59
2022-10-02T20:31:41.795Z,102200.66
2022-10-02T20:34:34.457Z,102198.84
2022-10-02T20:37:08.628Z,102204.06
2022-10-02T20:40:02.548Z,102207.50
2022-10-02T20:42:40.835Z,102206.53
2022-10-02T20:45:15.118Z,102204.69
2022-10-02T20:48:10.792Z,102217.81
2022-10-02T20:50:48.907Z,102209.81
2022-10-02T20:53:56.105Z,102221.19
2022-10-02T20:57:07.967Z,102219.31
2022-10-02T20:59:59.838Z,102224.47
2022-10-02T21:02:35.036Z,102232.34
2022-10-02T21:05:37.713Z,102234.97
2022-10-02T21:08:40.645Z,102230.53
2022-10-02T21:11:22.614Z,102232.22
2022-10-02T21:13:53.949Z,102236.56
2022-10-02T21:16:38.345Z,102236.47
2022-10-02T21:19:47.630Z,102241.69
2022-10-02T21:22:33.496Z,102243.41
2022-10-02T21:25:21.215Z,102241.63
2022-10-02T21:28:10.006Z,102241.56
2022-10-02T21:30:54.713Z,102250.28
2022-10-02T21:33:32.851Z,102244.91
2022-10-02T21:36:25.243Z,102260.69
2022-10-02T21:39:31.901Z,102267.63
2022-10-02T21:42:31.956Z,102277.25
2022-10-02T21:45:39.488Z,102278.97
2022-10-02T21:48:26.909Z,102277.94
2022-10-02T21:51:31.427Z,102277.84
2022-10-02T21:54:37.372Z,102291.03
2022-10-02T21:57:40.102Z,102296.31
2022-10-02T22:00:26.851Z,102291.94
2022-10-02T22:03:38.073Z,102294.59
2022-10-02T22:06:16.703Z,102289.31
2022-10-02T22:09:07.840Z,102292.84
2022-10-02T22:12:04.623Z,102297.28
2022-10-02T22:14:33.724Z,102300.75
2022-10-02T22:17:22.712Z,102305.19
2022-10-02T22:20:43.626Z,102308.66
2022-10-02T22:23:39.498Z,102309.50
2022-10-02T22:26:22.929Z,102305.94
2022-10-02T22:29:08.961Z,102314.66
2022-10-02T22:32:27.903Z,102318.91
2022-10-02T22:35:06.463Z,102313.56
2022-10-02T22:37:49.943Z,102321.38
2022-10-02T22:40:23.313Z,102324.81
2022-10-02T22:43:04.169Z,102319.38
2022-10-02T22:46:00.383Z,102331.63
2022-10-02T22:48:40.084Z,102325.38
2022-10-02T22:51:20.287Z,102327.91
2022-10-02T22:53:51.416Z,102328.75
2022-10-02T22:56:36.492Z,102331.38
2022-10-02T22:59:26.307Z,102333.09
2022-10-02T23:02:31.814Z,102340.06
2022-10-02T23:05:12.217Z,102325.94
2022-10-02T23:07:51.557Z,102331.13
2022-10-02T23:10:32.180Z,102332.78
2022-10-02T23:13:11.853Z,102329.22
2022-10-02T23:15:57.659Z,102338.78
2022-10-02T23:18:40.816Z,102339.63
2022-10-02T23:21:34.211Z,102347.50
2022-10-02T23:24:19.733Z,102344.84
2022-10-02T23:27:07.997Z,102345.75
2022-10-02T23:29:42.391Z,102343.09
2022-10-02T23:32:32.833Z,102333.34
2022-10-02T23:35:35.374Z,102345.56
2022-10-02T23:38:17.241Z,102341.91
2022-10-02T23:41:34.331Z,102342.78
2022-10-02T23:44:44.024Z,102351.50
2022-10-02T23:47:20.935Z,102347.94
2022-10-02T23:49:53.245Z,102353.16
2022-10-02T23:52:42.370Z,102364.56
2022-10-02T23:55:37.562Z,102361.03
2022-10-02T23:58:22.532Z,102361.91
